createdAt,value
2017-10-28T00:00:18.064Z,4.07
2017-10-28T00:02:46.421Z,5.37
2017-10-28T00:05:14.763Z,7.10
2017-10-28T00:07:43.106Z,6.83
2017-10-28T00:10:11.448Z,9.10
2017-10-28T00:12:39.810Z,9.07
2017-10-28T00:15:08.141Z,9.30
2017-10-28T00:17:36.485Z,10.27
2017-10-28T00:20:04.835Z,10.67
2017-10-28T00:22:33.196Z,13.50
2017-10-28T00:25:01.606Z,13.07
2017-10-28T00:27:29.971Z,11.87
2017-10-28T00:29:58.319Z,15.50
2017-10-28T00:32:32.215Z,15.40
2017-10-28T00:35:06.170Z,15.40
2017-10-28T00:37:34.518Z,16.87
2017-10-28T00:40:02.884Z,12.63
2017-10-28T00:42:31.227Z,13.97
2017-10-28T00:44:59.571Z,14.33
2017-10-28T00:47:27.932Z,14.17
2017-10-28T00:49:56.306Z,12.40
2017-10-28T00:52:24.657Z,11.23
2017-10-28T00:54:53.034Z,10.37
2017-10-28T00:57:21.380Z,9.60
2017-10-28T00:59:49.757Z,10.77
2017-10-28T01:02:18.107Z,10.73
2017-10-28T01:04:46.487Z,8.77
2017-10-28T01:07:14.828Z,8.97
2017-10-28T01:09:43.172Z,9.23
2017-10-28T01:12:11.510Z,9.07
2017-10-28T01:14:39.917Z,8.53
2017-10-28T01:17:08.296Z,8.60
2017-10-28T01:19:36.642Z,9.00
2017-10-28T01:22:05.014Z,7.90
2017-10-28T01:24:33.359Z,7.03
2017-10-28T01:27:01.699Z,5.80
2017-10-28T01:29:30.084Z,4.97
2017-10-28T01:31:58.419Z,4.60
2017-10-28T01:34:26.757Z,4.37
2017-10-28T01:36:55.096Z,3.40
2017-10-28T01:39:23.431Z,3.70
2017-10-28T01:41:51.771Z,3.57
2017-10-28T01:44:20.140Z,4.50
2017-10-28T01:46:48.478Z,5.07
2017-10-28T01:49:16.847Z,4.13
2017-10-28T01:51:45.192Z,4.13
2017-10-28T01:54:13.558Z,4.33
2017-10-28T01:56:41.914Z,4.20
2017-10-28T01:59:10.254Z,3.17
2017-10-28T02:01:38.584Z,3.10
2017-10-28T02:04:06.932Z,3.23
2017-10-28T02:06:35.300Z,3.40
2017-10-28T02:09:03.643Z,3.27
2017-10-28T02:11:32.014Z,3.50
2017-10-28T02:14:00.352Z,3.07
2017-10-28T02:16:28.724Z,3.67
2017-10-28T02:18:57.074Z,4.30
2017-10-28T02:21:25.412Z,4.57
2017-10-28T02:23:53.749Z,4.80
2017-10-28T02:26:22.123Z,5.67
2017-10-28T02:28:50.462Z,5.97
2017-10-28T02:31:18.814Z,5.60
2017-10-28T02:33:47.183Z,7.10
2017-10-28T02:36:15.527Z,6.67
2017-10-28T02:38:43.968Z,7.77
2017-10-28T02:41:13.274Z,7.80
2017-10-28T02:43:41.627Z,10.10
2017-10-28T02:46:10.019Z,6.30
2017-10-28T02:48:38.367Z,6.63
2017-10-28T02:51:06.695Z,8.40
2017-10-28T02:53:35.070Z,7.90
2017-10-28T02:56:03.424Z,8.50
2017-10-28T02:58:32.519Z,7.30
2017-10-28T03:01:00.883Z,7.73
2017-10-28T03:03:29.247Z,8.00
2017-10-28T03:05:57.595Z,8.77
2017-10-28T03:08:25.969Z,9.73
2017-10-28T03:10:54.314Z,10.27
2017-10-28T03:13:22.691Z,9.30
2017-10-28T03:15:51.069Z,8.23
2017-10-28T03:18:19.411Z,8.07
2017-10-28T03:20:47.782Z,7.90
2017-10-28T03:23:16.130Z,9.43
2017-10-28T03:25:44.475Z,10.23
2017-10-28T03:28:12.818Z,9.90
2017-10-28T03:30:41.163Z,8.80
2017-10-28T03:33:09.531Z,7.20
2017-10-28T03:35:37.868Z,7.60
2017-10-28T03:38:06.238Z,7.80
2017-10-28T03:40:34.578Z,7.00
2017-10-28T03:43:02.941Z,7.17
2017-10-28T03:45:31.362Z,7.20
2017-10-28T03:47:59.736Z,6.50
2017-10-28T03:50:28.149Z,5.90
2017-10-28T03:52:56.507Z,6.10
2017-10-28T03:55:24.844Z,6.03
2017-10-28T03:57:53.177Z,5.70
2017-10-28T04:00:21.559Z,4.67
2017-10-28T04:02:49.927Z,5.80
2017-10-28T04:05:18.281Z,5.27
2017-10-28T04:07:46.617Z,5.40
2017-10-28T04:10:14.959Z,4.90
2017-10-28T04:12:43.328Z,6.20
2017-10-28T04:15:11.688Z,5.33
2017-10-28T04:17:40.063Z,4.03
2017-10-28T04:20:08.426Z,3.97
2017-10-28T04:22:36.770Z,4.93
2017-10-28T04:25:05.168Z,4.23
2017-10-28T04:27:33.511Z,4.10
2017-10-28T04:30:01.885Z,4.37
2017-10-28T04:32:30.227Z,4.13
2017-10-28T04:34:58.571Z,3.70
2017-10-28T04:37:26.924Z,3.73
2017-10-28T04:39:55.268Z,3.90
2017-10-28T04:42:23.602Z,2.97
2017-10-28T04:44:51.935Z,4.43
2017-10-28T04:47:20.278Z,5.80
2017-10-28T04:49:48.647Z,4.50
2017-10-28T04:52:16.993Z,3.73
2017-10-28T04:54:45.335Z,3.33
2017-10-28T04:57:13.670Z,5.20
2017-10-28T04:59:42.031Z,5.30
2017-10-28T05:02:10.371Z,4.07
2017-10-28T05:04:38.752Z,4.10
2017-10-28T05:07:07.132Z,4.50
2017-10-28T05:09:35.475Z,3.60
2017-10-28T05:12:03.815Z,3.97
2017-10-28T05:14:32.152Z,5.30
2017-10-28T05:17:00.524Z,4.60
2017-10-28T05:19:28.866Z,4.90
2017-10-28T05:21:57.206Z,4.83
2017-10-28T05:24:25.574Z,4.70
2017-10-28T05:26:53.919Z,5.50
2017-10-28T05:29:22.272Z,6.80
2017-10-28T05:31:50.616Z,8.17
2017-10-28T05:34:18.950Z,7.73
2017-10-28T05:36:47.295Z,8.40
2017-10-28T05:39:15.663Z,8.77
2017-10-28T05:41:44.031Z,9.17
2017-10-28T05:44:12.390Z,10.27
2017-10-28T05:46:40.739Z,8.33
2017-10-28T05:49:09.095Z,8.30
2017-10-28T05:51:37.725Z,8.43
2017-10-28T05:54:06.121Z,8.80
2017-10-28T05:56:34.532Z,9.53
2017-10-28T05:59:02.890Z,8.13
2017-10-28T06:01:31.235Z,9.37
2017-10-28T06:03:59.618Z,9.70
2017-10-28T06:06:27.965Z,9.37
2017-10-28T06:08:56.355Z,9.40
2017-10-28T06:11:24.884Z,9.13
2017-10-28T06:13:53.232Z,12.33
2017-10-28T06:16:21.768Z,10.67
2017-10-28T06:18:50.169Z,10.70
2017-10-28T06:21:18.688Z,11.97
2017-10-28T06:23:47.031Z,8.70
2017-10-28T06:26:15.408Z,11.30
2017-10-28T06:28:43.758Z,10.87
2017-10-28T06:31:12.223Z,8.87
2017-10-28T06:33:40.571Z,9.40
2017-10-28T06:36:09.165Z,9.83
2017-10-28T06:38:37.643Z,9.77
2017-10-28T06:41:06.019Z,9.80
2017-10-28T06:43:34.405Z,10.40
2017-10-28T06:46:02.750Z,9.40
2017-10-28T06:48:31.087Z,9.97
2017-10-28T06:50:59.439Z,12.03
2017-10-28T06:53:27.818Z,9.90
2017-10-28T06:55:56.160Z,9.80
2017-10-28T06:58:24.507Z,10.97
2017-10-28T07:00:52.886Z,10.00
2017-10-28T07:03:21.226Z,10.27
2017-10-28T07:05:49.579Z,11.00
2017-10-28T07:08:17.963Z,12.37
2017-10-28T07:10:46.302Z,11.63
2017-10-28T07:13:14.647Z,10.27
2017-10-28T07:15:42.984Z,10.60
2017-10-28T07:18:11.359Z,11.20
2017-10-28T07:20:39.703Z,12.50
2017-10-28T07:23:08.043Z,11.93
2017-10-28T07:25:36.395Z,11.87
2017-10-28T07:28:04.780Z,10.37
2017-10-28T07:30:33.129Z,10.87
2017-10-28T07:33:01.471Z,11.77
2017-10-28T07:35:29.810Z,11.67
2017-10-28T07:37:58.147Z,10.97
2017-10-28T07:40:26.503Z,11.00
2017-10-28T07:42:54.884Z,11.77
2017-10-28T07:45:23.209Z,11.17
2017-10-28T07:47:51.594Z,10.67
2017-10-28T07:50:19.951Z,10.07
2017-10-28T07:52:48.287Z,10.40
2017-10-28T07:55:16.647Z,9.50
2017-10-28T07:57:44.984Z,10.87
2017-10-28T08:00:13.329Z,11.63
2017-10-28T08:02:41.675Z,11.00
2017-10-28T08:05:10.051Z,11.77
2017-10-28T08:07:38.399Z,11.90
2017-10-28T08:10:06.748Z,11.20
2017-10-28T08:12:35.084Z,11.37
2017-10-28T08:15:03.435Z,10.73
2017-10-28T08:17:31.781Z,10.30
2017-10-28T08:20:00.160Z,10.50
2017-10-28T08:22:28.469Z,10.50
2017-10-28T08:24:56.816Z,11.70
2017-10-28T08:27:25.156Z,10.93
2017-10-28T08:29:53.529Z,12.17
2017-10-28T08:32:21.856Z,10.40
2017-10-28T08:34:50.194Z,10.90
2017-10-28T08:37:19.311Z,10.40
2017-10-28T08:39:47.646Z,11.17
2017-10-28T08:42:15.982Z,9.97
2017-10-28T08:44:44.321Z,9.50
2017-10-28T08:47:12.647Z,9.30
2017-10-28T08:49:41.016Z,9.60
2017-10-28T08:52:09.361Z,10.80
2017-10-28T08:54:37.710Z,10.17
2017-10-28T08:57:06.052Z,11.00
2017-10-28T08:59:34.386Z,11.90
2017-10-28T09:02:02.727Z,11.60
2017-10-28T09:04:31.098Z,13.17
2017-10-28T09:06:59.452Z,13.00
2017-10-28T09:09:27.826Z,13.50
2017-10-28T09:11:56.166Z,13.97
2017-10-28T09:14:24.514Z,13.50
2017-10-28T09:16:52.857Z,12.10
2017-10-28T09:19:21.199Z,11.60
2017-10-28T09:21:49.543Z,12.47
2017-10-28T09:24:17.886Z,11.57
2017-10-28T09:26:46.233Z,10.67
2017-10-28T09:29:14.563Z,10.40
2017-10-28T09:31:42.917Z,11.80
2017-10-28T09:34:11.249Z,12.40
2017-10-28T09:36:39.609Z,12.00
2017-10-28T09:39:07.961Z,11.70
2017-10-28T09:41:36.306Z,12.30
2017-10-28T09:44:04.650Z,13.00
2017-10-28T09:46:33.018Z,12.80
2017-10-28T09:49:01.367Z,12.80
2017-10-28T09:51:29.715Z,13.73
2017-10-28T09:53:58.055Z,12.80
2017-10-28T09:56:26.473Z,12.27
2017-10-28T09:58:54.815Z,14.10
2017-10-28T10:01:23.172Z,14.30
2017-10-28T10:03:51.516Z,12.97
2017-10-28T10:06:19.855Z,12.90
2017-10-28T10:08:48.228Z,14.27
2017-10-28T10:11:16.563Z,11.97
2017-10-28T10:13:44.902Z,13.17
2017-10-28T10:16:13.246Z,12.97
2017-10-28T10:18:41.596Z,11.50
2017-10-28T10:21:09.942Z,12.47
2017-10-28T10:23:38.297Z,12.00
2017-10-28T10:26:06.635Z,14.40
2017-10-28T10:28:34.975Z,12.43
2017-10-28T10:31:03.351Z,13.57
2017-10-28T10:33:31.688Z,13.00
2017-10-28T10:36:00.035Z,13.30
2017-10-28T10:38:28.374Z,13.70
2017-10-28T10:40:56.717Z,12.37
2017-10-28T10:43:25.055Z,12.37
2017-10-28T10:45:53.474Z,13.67
2017-10-28T10:48:21.855Z,14.20
2017-10-28T10:50:50.207Z,14.97
2017-10-28T10:53:18.650Z,13.63
2017-10-28T10:55:47.007Z,14.00
2017-10-28T10:58:15.355Z,14.03
2017-10-28T11:00:43.700Z,13.33
2017-10-28T11:03:12.051Z,13.30
2017-10-28T11:05:40.393Z,13.20
2017-10-28T11:08:08.732Z,13.30
2017-10-28T11:10:37.085Z,12.77
2017-10-28T11:13:05.426Z,14.10
2017-10-28T11:15:33.804Z,14.10
2017-10-28T11:18:02.297Z,13.87
2017-10-28T11:20:30.882Z,14.37
2017-10-28T11:22:59.332Z,13.67
2017-10-28T11:25:27.880Z,13.87
2017-10-28T11:27:56.464Z,14.10
2017-10-28T11:30:24.905Z,14.80
2017-10-28T11:32:53.544Z,13.33
2017-10-28T11:35:22.125Z,13.03
2017-10-28T11:37:50.788Z,13.50
2017-10-28T11:40:19.214Z,12.10
2017-10-28T11:42:47.581Z,13.30
2017-10-28T11:45:16.146Z,14.10
2017-10-28T11:47:44.829Z,12.77
2017-10-28T11:50:13.388Z,12.10
2017-10-28T11:52:41.937Z,13.10
2017-10-28T11:55:10.463Z,14.57
2017-10-28T11:57:39.022Z,13.87
2017-10-28T12:00:07.686Z,13.57
2017-10-28T12:02:36.217Z,13.87
2017-10-28T12:05:04.880Z,13.93
2017-10-28T12:07:33.388Z,14.03
2017-10-28T12:10:01.792Z,13.53
2017-10-28T12:12:30.497Z,12.13
2017-10-28T12:14:58.955Z,12.47
2017-10-28T12:17:27.454Z,12.73
2017-10-28T12:19:56.165Z,12.30
2017-10-28T12:22:26.435Z,11.63
2017-10-28T12:24:55.076Z,11.90
2017-10-28T12:27:23.710Z,11.60
2017-10-28T12:29:53.246Z,12.40
2017-10-28T12:32:22.768Z,11.80
2017-10-28T12:34:51.408Z,12.57
2017-10-28T12:37:20.051Z,12.23
2017-10-28T12:39:48.700Z,11.90
2017-10-28T12:42:17.323Z,12.33
2017-10-28T12:44:45.926Z,11.23
2017-10-28T12:47:14.409Z,12.00
2017-10-28T12:49:42.889Z,10.90
2017-10-28T12:52:11.525Z,10.87
2017-10-28T12:54:40.007Z,10.40
2017-10-28T12:57:08.605Z,12.37
2017-10-28T12:59:37.106Z,11.13
2017-10-28T13:02:05.651Z,12.63
2017-10-28T13:04:34.302Z,12.07
2017-10-28T13:07:02.927Z,12.00
2017-10-28T13:09:31.423Z,12.73
2017-10-28T13:11:59.945Z,11.60
2017-10-28T13:14:28.533Z,12.03
2017-10-28T13:16:57.162Z,11.53
2017-10-28T13:19:25.704Z,12.13
2017-10-28T13:21:54.277Z,12.20
2017-10-28T13:24:22.797Z,11.50
2017-10-28T13:26:51.457Z,12.00
2017-10-28T13:29:20.004Z,11.97
2017-10-28T13:31:48.573Z,12.50
2017-10-28T13:34:17.177Z,11.20
2017-10-28T13:36:45.887Z,11.30
2017-10-28T13:39:14.495Z,11.60
2017-10-28T13:41:43.124Z,13.00
2017-10-28T13:44:11.912Z,11.93
2017-10-28T13:46:40.400Z,12.30
2017-10-28T13:49:09.005Z,12.83
2017-10-28T13:51:37.435Z,12.97
2017-10-28T13:54:05.857Z,12.30
2017-10-28T13:56:34.330Z,13.13
2017-10-28T13:59:02.934Z,12.90
2017-10-28T14:01:31.537Z,12.63
2017-10-28T14:04:00.726Z,13.10
2017-10-28T14:06:29.233Z,13.77
2017-10-28T14:08:57.770Z,13.20
2017-10-28T14:11:26.476Z,12.23
2017-10-28T14:13:55.005Z,12.53
2017-10-28T14:16:23.614Z,13.13
2017-10-28T14:18:52.166Z,12.00
2017-10-28T14:21:20.797Z,11.63
2017-10-28T14:23:49.332Z,13.10
2017-10-28T14:26:18.038Z,13.00
2017-10-28T14:28:46.697Z,13.47
2017-10-28T14:31:15.377Z,12.33
2017-10-28T14:33:43.863Z,14.50
2017-10-28T14:36:12.477Z,13.03
2017-10-28T14:38:41.166Z,13.80
2017-10-28T14:41:09.664Z,12.50
2017-10-28T14:43:38.065Z,13.90
2017-10-28T14:46:07.511Z,13.10
2017-10-28T14:48:35.873Z,12.70
2017-10-28T14:51:04.288Z,13.10
2017-10-28T14:53:32.629Z,13.20
2017-10-28T14:56:00.974Z,13.40
2017-10-28T14:58:29.410Z,13.60
2017-10-28T15:00:57.800Z,12.53
2017-10-28T15:03:26.227Z,13.10
2017-10-28T15:05:54.580Z,14.17
2017-10-28T15:08:23.169Z,14.07
2017-10-28T15:10:51.533Z,13.30
2017-10-28T15:13:20.213Z,13.30
2017-10-28T15:15:48.715Z,14.83
2017-10-28T15:18:17.055Z,13.60
2017-10-28T15:20:45.464Z,14.50
2017-10-28T15:23:13.832Z,15.23
2017-10-28T15:25:42.356Z,13.67
2017-10-28T15:28:10.883Z,13.10
2017-10-28T15:30:39.572Z,13.50
2017-10-28T15:33:08.048Z,13.07
2017-10-28T15:35:36.435Z,13.73
2017-10-28T15:38:04.767Z,14.53
2017-10-28T15:40:33.171Z,14.83
2017-10-28T15:43:01.568Z,15.10
2017-10-28T15:45:30.086Z,14.87
2017-10-28T15:47:58.468Z,16.90
2017-10-28T15:50:26.933Z,15.93
2017-10-28T15:52:55.282Z,14.93
2017-10-28T15:55:23.811Z,15.43
2017-10-28T15:57:52.221Z,17.20
2017-10-28T16:00:20.659Z,16.93
2017-10-28T16:02:49.185Z,19.50
2017-10-28T16:05:17.615Z,19.60
2017-10-28T16:07:46.001Z,18.97
2017-10-28T16:10:14.376Z,19.57
2017-10-28T16:12:42.795Z,20.23
2017-10-28T16:15:11.281Z,20.03
2017-10-28T16:17:39.634Z,23.70
2017-10-28T16:20:08.231Z,23.80
2017-10-28T16:22:36.874Z,23.10
2017-10-28T16:25:05.276Z,22.27
2017-10-28T16:27:33.607Z,24.93
2017-10-28T16:30:02.192Z,23.30
2017-10-28T16:32:30.799Z,24.03
2017-10-28T16:34:59.341Z,24.40
2017-10-28T16:37:27.821Z,25.47
2017-10-28T16:39:56.229Z,29.17
2017-10-28T16:42:24.608Z,27.27
2017-10-28T16:44:53.000Z,24.67
2017-10-28T16:47:21.348Z,24.83
2017-10-28T16:49:49.718Z,24.57
2017-10-28T16:52:18.343Z,27.60
2017-10-28T16:54:46.997Z,23.20
2017-10-28T16:57:15.339Z,24.33
2017-10-28T16:59:43.792Z,23.53
2017-10-28T17:02:12.171Z,22.83
2017-10-28T17:04:40.591Z,21.17
2017-10-28T17:07:08.947Z,21.67
2017-10-28T17:09:37.321Z,18.47
2017-10-28T17:12:08.854Z,19.40
2017-10-28T17:14:38.546Z,18.17
2017-10-28T17:17:10.325Z,20.30
2017-10-28T17:19:38.702Z,17.57
2017-10-28T17:22:07.074Z,19.60
2017-10-28T17:24:35.453Z,20.50
2017-10-28T17:27:03.799Z,22.47
2017-10-28T17:29:32.300Z,19.50
2017-10-28T17:32:00.692Z,17.87
2017-10-28T17:34:29.042Z,20.87
2017-10-28T17:36:57.547Z,16.70
2017-10-28T17:39:25.896Z,17.23
2017-10-28T17:41:54.231Z,16.07
2017-10-28T17:44:22.635Z,15.97
2017-10-28T17:46:50.985Z,16.67
2017-10-28T17:49:19.378Z,15.10
2017-10-28T17:51:47.766Z,14.87
2017-10-28T17:54:16.123Z,13.53
2017-10-28T17:56:44.490Z,14.87
2017-10-28T17:59:12.832Z,14.17
2017-10-28T18:01:41.178Z,13.03
2017-10-28T18:04:09.549Z,12.97
2017-10-28T18:06:38.174Z,12.10
2017-10-28T18:09:06.550Z,12.00
2017-10-28T18:11:34.901Z,11.03
2017-10-28T18:14:03.544Z,12.60
2017-10-28T18:16:31.899Z,14.90
2017-10-28T18:19:00.243Z,12.27
2017-10-28T18:21:28.676Z,10.57
2017-10-28T18:23:57.019Z,10.60
2017-10-28T18:26:25.544Z,11.20
2017-10-28T18:28:54.122Z,10.10
2017-10-28T18:31:22.492Z,10.47
2017-10-28T18:33:50.899Z,9.97
2017-10-28T18:36:19.343Z,9.00
2017-10-28T18:38:47.762Z,8.37
2017-10-28T18:41:16.590Z,7.80
2017-10-28T18:43:45.039Z,9.23
2017-10-28T18:46:13.439Z,8.23
2017-10-28T18:48:41.963Z,7.43
2017-10-28T18:51:10.341Z,7.87
2017-10-28T18:53:38.861Z,10.53
2017-10-28T18:56:07.314Z,8.10
2017-10-28T18:58:35.653Z,4.83
2017-10-28T19:01:04.327Z,8.03
2017-10-28T19:03:32.695Z,10.57
2017-10-28T19:06:01.340Z,3.17
2017-10-28T19:08:29.706Z,3.77
2017-10-28T19:10:58.277Z,7.87
2017-10-28T19:13:26.660Z,3.13
2017-10-28T19:15:55.334Z,3.40
2017-10-28T19:18:23.836Z,3.27
2017-10-28T19:20:52.170Z,3.70
2017-10-28T19:23:21.207Z,3.43
2017-10-28T19:25:49.525Z,3.50
2017-10-28T19:28:17.895Z,4.67
2017-10-28T19:30:46.260Z,4.70
2017-10-28T19:33:14.690Z,4.13
2017-10-28T19:35:43.288Z,5.70
2017-10-28T19:38:11.773Z,5.33
2017-10-28T19:40:40.236Z,9.07
2017-10-28T19:43:08.683Z,5.60
2017-10-28T19:45:37.250Z,9.27
2017-10-28T19:48:06.545Z,6.37
2017-10-28T19:50:34.917Z,3.37
2017-10-28T19:53:03.255Z,3.97
2017-10-28T19:55:31.592Z,3.77
2017-10-28T19:58:00.001Z,3.27
2017-10-28T20:00:28.364Z,3.77
2017-10-28T20:02:56.701Z,4.77
2017-10-28T20:05:25.044Z,4.90
2017-10-28T20:07:53.397Z,3.63
2017-10-28T20:10:21.770Z,4.50
2017-10-28T20:12:50.132Z,3.63
2017-10-28T20:15:18.511Z,2.90
2017-10-28T20:17:46.906Z,2.90
2017-10-28T20:20:15.275Z,2.30
2017-10-28T20:22:43.734Z,3.43
2017-10-28T20:25:12.088Z,4.70
2017-10-28T20:27:40.444Z,4.07
2017-10-28T20:30:08.806Z,4.10
2017-10-28T20:32:37.151Z,4.17
2017-10-28T20:35:05.519Z,3.00
2017-10-28T20:37:33.891Z,3.40
2017-10-28T20:40:02.259Z,3.03
2017-10-28T20:42:30.640Z,2.80
2017-10-28T20:44:59.018Z,3.50
2017-10-28T20:47:27.424Z,3.70
2017-10-28T20:49:55.766Z,3.63
2017-10-28T20:52:24.154Z,3.53
2017-10-28T20:54:52.485Z,4.53
2017-10-28T20:57:20.819Z,4.90
2017-10-28T20:59:49.160Z,4.03
2017-10-28T21:02:17.534Z,3.60
2017-10-28T21:04:45.897Z,6.57
2017-10-28T21:07:14.244Z,5.13
2017-10-28T21:09:42.579Z,5.53
2017-10-28T21:12:11.010Z,3.37
2017-10-28T21:14:39.520Z,7.20
2017-10-28T21:17:08.010Z,4.70
2017-10-28T21:19:36.508Z,4.30
2017-10-28T21:22:04.910Z,2.93
2017-10-28T21:24:33.285Z,2.80
2017-10-28T21:27:01.913Z,2.90
2017-10-28T21:29:30.996Z,2.33
2017-10-28T21:31:59.378Z,2.70
2017-10-28T21:34:27.979Z,2.30
2017-10-28T21:36:56.350Z,2.47
2017-10-28T21:39:24.984Z,2.33
2017-10-28T21:41:53.315Z,2.33
2017-10-28T21:44:21.709Z,1.80
2017-10-28T21:46:50.209Z,1.63
2017-10-28T21:49:18.706Z,1.53
2017-10-28T21:51:47.115Z,5.47
2017-10-28T21:54:15.486Z,2.67
2017-10-28T21:56:43.833Z,6.27
2017-10-28T21:59:12.177Z,3.40
2017-10-28T22:01:40.515Z,2.40
2017-10-28T22:04:08.859Z,1.50
2017-10-28T22:06:37.232Z,2.00
2017-10-28T22:09:05.578Z,1.70
2017-10-28T22:11:33.946Z,1.60
2017-10-28T22:14:02.318Z,1.30
2017-10-28T22:16:30.883Z,2.63
2017-10-28T22:18:59.309Z,3.07
2017-10-28T22:21:28.673Z,3.47
2017-10-28T22:23:57.098Z,3.30
2017-10-28T22:26:25.572Z,3.10
2017-10-28T22:28:53.968Z,2.57
2017-10-28T22:31:22.475Z,4.10
2017-10-28T22:33:50.851Z,5.10
2017-10-28T22:36:19.206Z,7.77
2017-10-28T22:38:47.638Z,7.57
2017-10-28T22:41:16.100Z,7.90
2017-10-28T22:43:44.435Z,6.70
2017-10-28T22:46:12.819Z,5.43
2017-10-28T22:48:41.156Z,4.87
2017-10-28T22:51:09.535Z,5.13
2017-10-28T22:53:37.884Z,4.90
2017-10-28T22:56:06.223Z,5.10
2017-10-28T22:58:34.570Z,4.17
2017-10-28T23:01:03.047Z,3.63
2017-10-28T23:03:31.378Z,3.53
2017-10-28T23:05:59.727Z,3.40
2017-10-28T23:08:28.076Z,3.20
2017-10-28T23:10:56.421Z,3.90
2017-10-28T23:13:24.795Z,4.60
2017-10-28T23:15:53.147Z,4.80
2017-10-28T23:18:21.514Z,3.40
2017-10-28T23:20:49.862Z,4.73
2017-10-28T23:23:18.211Z,4.13
2017-10-28T23:25:46.639Z,3.20
2017-10-28T23:28:14.982Z,5.13
2017-10-28T23:30:43.336Z,4.83
2017-10-28T23:33:11.706Z,3.63
2017-10-28T23:35:40.050Z,3.87
2017-10-28T23:38:08.427Z,2.40
2017-10-28T23:40:36.763Z,1.73
2017-10-28T23:43:05.131Z,2.47
2017-10-28T23:45:33.509Z,1.90
2017-10-28T23:48:01.856Z,1.53
2017-10-28T23:50:30.222Z,1.57
2017-10-28T23:52:58.559Z,1.40
2017-10-28T23:55:26.903Z,1.30
2017-10-28T23:57:55.248Z,1.10
